Página principal
METAR-TAF:

METAR-TAF

Aeroportos :

Aeroporto de Taiyuan Wusu

Taiyuan, China

latitude: 37-47N, longitude: 112-33E, altura: 779 m

Observação actual do tempo

O boletim foi feito há 39 minutos, às 16:30 UTC
Vento 4 kt de es-nordeste
Temperatura 24°C
Humidade 74%
Pressão 1007 hPa
Visibilidade: 6000 m

METAR: ZBYN 231630Z 07002MPS 6000 NSC 24/19 Q1007 NOSIG

Hora: 01:09 (17:09 UTC)

Previsão

O boletim foi feito há 7 horas e 56 minutos, às 09:13 UTC
Previsão válida de 23 às 12 UTC a 24 às 12 UTC
Vento 8 kt de este
Visibilidade: 6000 m
Temporariamente
de 24 às 08 UTC a 24 às 12 UTC
Poucas nuvensa uma altura de 3000 ft, Cumulonimbus.
Nuvens dispersasa uma altura de 4000 ft
trovoada, chuva fraca

TAF: ZBYN 230913Z 2312/2412 09004MPS 6000 NSC TX31/2407Z TN21/2321Z TEMPO 2408/2412 -TSRA FEW030CB SCT040

Observações e previsões do tempo de mais de 4000 aeroportos (mensagens METAR e TAF).

As estações disponíveis são os pontos amarelos e vermelhos sobre o mapa.

Mova o rato sobre o mapa para ver o nome da estação.

Depois clique no ponto para visualizar as observações e previsões meteorológicas.

Para alterar o mapa : clique nos botões verdes com uma cruz preta para aumentar o zoom; no botão verde com uma pitada de zoom; ou nas setas verdes para mapas adjacentes.


METAR-TAF: